createdAt,value
2022-12-09T00:55:31.297Z,21.15
2022-12-09T01:00:34.592Z,21.11
2022-12-09T01:05:37.398Z,21.05
2022-12-09T01:10:43.506Z,20.98
2022-12-09T01:15:46.749Z,20.93
2022-12-09T01:20:57.703Z,20.85
2022-12-09T01:26:04.314Z,20.75
2022-12-09T01:31:08.783Z,20.68
2022-12-09T01:36:15.727Z,20.61
2022-12-09T01:41:20.850Z,20.56
2022-12-09T01:46:23.690Z,20.51
2022-12-09T01:51:26.776Z,20.48
2022-12-09T01:56:33.847Z,20.44
2022-12-09T02:01:38.869Z,20.40
2022-12-09T02:06:42.050Z,20.34
2022-12-09T02:12:03.639Z,20.29
2022-12-09T02:17:22.272Z,20.27
2022-12-09T02:22:35.586Z,20.27
2022-12-09T02:27:48.609Z,20.21
2022-12-09T02:33:22.895Z,20.17
2022-12-09T02:38:31.247Z,20.15
2022-12-09T02:43:38.544Z,20.11
2022-12-09T02:48:44.876Z,20.08
2022-12-09T02:53:54.358Z,20.04
2022-12-09T02:58:57.522Z,20.01
2022-12-09T03:04:04.353Z,19.96
2022-12-09T03:09:12.026Z,19.96
2022-12-09T03:14:20.310Z,19.93
2022-12-09T03:19:29.159Z,19.90
2022-12-09T03:24:38.996Z,19.88
2022-12-09T03:29:46.853Z,19.85
2022-12-09T03:34:56.455Z,19.83
2022-12-09T03:40:02.240Z,19.80
2022-12-09T03:45:09.291Z,19.80
2022-12-09T03:50:13.320Z,19.75
2022-12-09T03:55:24.956Z,19.72
2022-12-09T04:00:28.291Z,19.73
2022-12-09T04:05:31.321Z,19.70
2022-12-09T04:10:35.598Z,19.71
2022-12-09T04:15:38.412Z,19.69
2022-12-09T04:20:41.927Z,19.62
2022-12-09T04:25:46.214Z,19.56
2022-12-09T04:30:49.179Z,19.55
2022-12-09T04:35:52.126Z,19.57
2022-12-09T04:40:56.287Z,19.53
2022-12-09T04:46:01.862Z,19.52
2022-12-09T04:51:05.283Z,19.50
2022-12-09T04:56:13.905Z,19.49
2022-12-09T05:01:18.615Z,19.49
2022-12-09T05:06:23.872Z,19.46
2022-12-09T05:11:28.294Z,19.47
2022-12-09T05:16:31.775Z,19.44
2022-12-09T05:21:34.594Z,19.43
2022-12-09T05:26:39.472Z,19.44
2022-12-09T05:31:42.570Z,19.43
2022-12-09T05:36:46.114Z,19.43
2022-12-09T05:41:50.629Z,19.41
2022-12-09T05:46:53.680Z,19.39
2022-12-09T05:51:56.579Z,19.40
2022-12-09T05:57:01.316Z,19.40
2022-12-09T06:02:09.732Z,19.40
2022-12-09T06:07:13.253Z,19.39
2022-12-09T06:12:17.646Z,19.41
2022-12-09T06:17:20.774Z,19.38
2022-12-09T06:22:23.700Z,19.35
2022-12-09T06:27:28.252Z,19.35
2022-12-09T06:32:31.659Z,19.36
2022-12-09T06:37:34.942Z,19.35
2022-12-09T06:42:39.566Z,19.35
2022-12-09T06:47:42.841Z,19.33
2022-12-09T06:52:46.069Z,19.31
2022-12-09T06:57:50.444Z,19.31
2022-12-09T07:02:54.506Z,19.29
2022-12-09T07:07:57.810Z,19.28
2022-12-09T07:13:02.419Z,19.27
2022-12-09T07:18:06.084Z,19.25
2022-12-09T07:23:10.178Z,19.25
2022-12-09T07:28:14.553Z,19.25
2022-12-09T07:33:17.388Z,19.23
2022-12-09T07:38:20.685Z,19.23
2022-12-09T07:43:25.361Z,19.24
2022-12-09T07:48:28.387Z,19.22
2022-12-09T07:53:32.136Z,19.20
2022-12-09T07:58:37.114Z,19.23
2022-12-09T08:03:42.517Z,19.24
2022-12-09T08:08:46.483Z,19.44
2022-12-09T08:13:51.058Z,19.61
2022-12-09T08:18:55.460Z,19.74
2022-12-09T08:24:00.851Z,19.87
2022-12-09T08:29:10.504Z,19.98
2022-12-09T08:34:14.390Z,18.90
2022-12-09T08:39:17.535Z,16.71
2022-12-09T08:44:22.828Z,15.64
2022-12-09T08:49:25.906Z,17.12
2022-12-09T08:54:29.490Z,17.84
2022-12-09T08:59:34.179Z,18.25
2022-12-09T09:04:37.704Z,18.51
2022-12-09T09:09:42.025Z,18.70
2022-12-09T09:14:46.397Z,18.92
2022-12-09T09:19:49.514Z,19.09
2022-12-09T09:24:54.249Z,19.24
2022-12-09T09:29:58.825Z,19.38
2022-12-09T09:35:01.979Z,19.49
2022-12-09T09:40:07.104Z,19.60
2022-12-09T09:45:18.540Z,19.70
2022-12-09T09:50:30.982Z,19.79
2022-12-09T09:55:41.519Z,19.90
2022-12-09T10:01:05.289Z,19.96
2022-12-09T10:06:21.211Z,20.00
2022-12-09T10:11:30.633Z,20.04
2022-12-09T10:16:44.032Z,20.06
2022-12-09T10:21:50.687Z,20.07
2022-12-09T10:27:15.453Z,20.05
2022-12-09T10:32:22.384Z,20.03
2022-12-09T10:37:31.480Z,20.00
2022-12-09T10:43:00.037Z,20.00
2022-12-09T10:48:04.916Z,19.97
2022-12-09T10:53:15.268Z,20.03
2022-12-09T10:58:21.244Z,20.10
2022-12-09T11:03:31.572Z,20.16
2022-12-09T11:08:35.326Z,20.24
2022-12-09T11:13:43.469Z,20.29
2022-12-09T11:18:49.165Z,20.34
2022-12-09T11:24:02.528Z,20.38
2022-12-09T11:29:14.937Z,20.40
2022-12-09T11:34:26.197Z,20.39
2022-12-09T11:39:31.907Z,20.37
2022-12-09T11:44:36.081Z,20.35
2022-12-09T11:49:51.350Z,20.32
2022-12-09T11:55:11.867Z,20.27
2022-12-09T12:00:20.757Z,20.25
2022-12-09T12:05:28.805Z,20.22
2022-12-09T12:10:37.611Z,20.24
2022-12-09T12:15:49.338Z,20.31
2022-12-09T12:21:30.468Z,20.40
2022-12-09T12:26:42.194Z,20.50
2022-12-09T12:32:03.334Z,20.59
2022-12-09T12:37:21.133Z,20.70
2022-12-09T12:42:38.092Z,20.79
2022-12-09T12:47:47.177Z,20.92
2022-12-09T12:52:57.848Z,21.00
2022-12-09T12:58:09.966Z,21.06
2022-12-09T13:03:23.197Z,21.12
2022-12-09T13:08:32.271Z,21.20
2022-12-09T13:13:44.366Z,21.25
2022-12-09T13:18:49.143Z,21.30
2022-12-09T13:24:01.618Z,21.40
2022-12-09T13:29:12.980Z,21.49
2022-12-09T13:34:26.843Z,21.58
2022-12-09T13:39:55.499Z,21.65
2022-12-09T13:45:07.288Z,21.71
2022-12-09T13:50:25.625Z,21.73
2022-12-09T13:55:33.663Z,21.74
2022-12-09T14:00:39.344Z,21.77
2022-12-09T14:05:42.469Z,21.77
2022-12-09T14:10:47.795Z,21.78
2022-12-09T14:16:34.280Z,21.79
2022-12-09T14:21:37.157Z,21.83
2022-12-09T14:26:44.645Z,21.82
2022-12-09T14:32:01.149Z,21.78
2022-12-09T14:37:36.321Z,21.80
2022-12-09T14:42:47.521Z,21.78
2022-12-09T14:47:52.223Z,21.78
2022-12-09T14:52:58.735Z,21.95
2022-12-09T14:58:03.098Z,22.08
2022-12-09T15:03:39.528Z,22.09
2022-12-09T15:08:42.562Z,22.17
2022-12-09T15:13:48.683Z,22.20
2022-12-09T15:18:55.247Z,22.22
2022-12-09T15:23:59.779Z,22.22
2022-12-09T15:34:23.212Z,22.22
2022-12-09T15:39:33.337Z,22.26
2022-12-09T15:44:42.005Z,22.27
2022-12-09T15:49:52.971Z,22.30
2022-12-09T15:54:57.268Z,22.47
2022-12-09T16:00:00.101Z,22.53
2022-12-09T16:05:06.766Z,22.69
2022-12-09T16:10:13.465Z,22.81
2022-12-09T16:15:49.795Z,22.89
2022-12-09T16:21:03.436Z,22.92
2022-12-09T16:26:07.741Z,22.91
2022-12-09T16:31:19.430Z,22.92
2022-12-09T16:36:26.196Z,22.91
2022-12-09T16:41:56.189Z,22.91
2022-12-09T16:47:16.235Z,22.88
2022-12-09T16:52:23.225Z,22.90
2022-12-09T16:57:25.986Z,22.82
2022-12-09T17:02:36.143Z,22.86
2022-12-09T17:07:39.188Z,23.00
2022-12-09T17:12:42.454Z,23.17
2022-12-09T17:17:48.909Z,23.29
2022-12-09T17:22:51.958Z,23.41
2022-12-09T17:27:55.291Z,23.48
2022-12-09T17:33:00.840Z,23.56
2022-12-09T17:38:03.656Z,23.57
2022-12-09T17:43:06.429Z,23.62
2022-12-09T17:48:11.648Z,23.62
2022-12-09T17:53:14.690Z,23.70
2022-12-09T17:58:17.705Z,23.78
2022-12-09T18:03:39.357Z,23.77
2022-12-09T18:08:44.839Z,23.78
2022-12-09T18:13:47.616Z,23.78
2022-12-09T18:18:52.372Z,23.76
2022-12-09T18:23:55.186Z,23.61
2022-12-09T18:28:59.036Z,23.58
2022-12-09T18:34:03.226Z,23.52
2022-12-09T18:39:06.517Z,23.45
2022-12-09T18:44:10.028Z,23.30
2022-12-09T18:49:16.192Z,23.13
2022-12-09T18:54:22.695Z,23.13
2022-12-09T18:59:26.044Z,23.13
2022-12-09T19:04:31.191Z,23.14
2022-12-09T19:09:36.315Z,23.09
2022-12-09T19:14:40.823Z,23.04
2022-12-09T19:19:47.197Z,23.04
2022-12-09T19:24:50.181Z,22.95
2022-12-09T19:29:52.921Z,23.00
2022-12-09T19:34:57.017Z,22.94
2022-12-09T19:40:00.291Z,22.96
2022-12-09T19:45:06.466Z,22.90
2022-12-09T19:50:12.466Z,22.84
2022-12-09T19:55:15.536Z,22.83
2022-12-09T20:00:18.508Z,22.84
2022-12-09T20:05:22.678Z,22.85
2022-12-09T20:10:25.451Z,22.83
2022-12-09T20:15:28.406Z,22.82
2022-12-09T20:20:34.128Z,22.75
2022-12-09T20:25:37.830Z,22.83
2022-12-09T20:30:40.598Z,22.74
2022-12-09T20:35:44.854Z,22.74
2022-12-09T20:40:47.826Z,22.71
2022-12-09T20:45:50.610Z,22.67
2022-12-09T20:50:54.760Z,22.67
2022-12-09T20:55:58.324Z,22.65
2022-12-09T21:01:06.801Z,22.65
2022-12-09T21:06:12.335Z,22.61
2022-12-09T21:11:17.963Z,22.62
2022-12-09T21:16:22.593Z,22.67
2022-12-09T21:21:29.593Z,22.63
2022-12-09T21:26:32.496Z,22.63
2022-12-09T21:31:37.839Z,22.64
2022-12-09T21:36:44.427Z,22.63
2022-12-09T21:41:47.310Z,22.64
2022-12-09T21:46:50.126Z,22.67
2022-12-09T21:51:54.437Z,22.57
2022-12-09T21:56:57.232Z,22.58
2022-12-09T22:02:00.171Z,22.60
2022-12-09T22:07:04.325Z,22.58
2022-12-09T22:12:07.483Z,22.55
2022-12-09T22:17:10.220Z,22.51
2022-12-09T22:22:14.289Z,22.50
2022-12-09T22:27:17.078Z,22.46
2022-12-09T22:32:19.841Z,22.51
2022-12-09T22:37:43.147Z,22.50
2022-12-09T22:42:47.203Z,22.43
2022-12-09T22:47:49.961Z,22.46
2022-12-09T22:52:54.072Z,22.37
2022-12-09T22:57:56.873Z,22.36
2022-12-09T23:02:59.761Z,22.32
2022-12-09T23:08:04.472Z,22.28
2022-12-09T23:13:07.929Z,22.29
2022-12-09T23:18:10.687Z,22.29
2022-12-09T23:23:15.092Z,22.23
2022-12-09T23:28:17.903Z,22.24
2022-12-09T23:33:21.145Z,22.21
2022-12-09T23:38:25.209Z,22.22
2022-12-09T23:43:30.884Z,22.21
2022-12-09T23:48:33.704Z,22.19
2022-12-09T23:53:38.206Z,22.20
2022-12-09T23:58:41.165Z,22.13
